sensor_id;sensor_type;location;lat;lon;timestamp;P1;durP1;ratioP1;P2;durP2;ratioP2
71955;SDS011;59829;50.562;6.258;2023-06-05T00:06:18;2.08;;;1.00;;
71955;SDS011;59829;50.562;6.258;2023-06-05T00:16:19;2.22;;;1.00;;
71955;SDS011;59829;50.562;6.258;2023-06-05T00:26:19;1.80;;;1.02;;
71955;SDS011;59829;50.562;6.258;2023-06-05T00:36:19;2.30;;;1.02;;
71955;SDS011;59829;50.562;6.258;2023-06-05T00:46:22;2.33;;;1.20;;
71955;SDS011;59829;50.562;6.258;2023-06-05T00:56:22;1.38;;;0.90;;
71955;SDS011;59829;50.562;6.258;2023-06-05T01:06:32;2.08;;;1.20;;
71955;SDS011;59829;50.562;6.258;2023-06-05T01:16:35;1.92;;;1.08;;
71955;SDS011;59829;50.562;6.258;2023-06-05T01:37:00;2.20;;;1.30;;
71955;SDS011;59829;50.562;6.258;2023-06-05T01:47:02;2.15;;;1.27;;
71955;SDS011;59829;50.562;6.258;2023-06-05T01:57:02;2.08;;;1.30;;
71955;SDS011;59829;50.562;6.258;2023-06-05T02:07:04;2.70;;;1.25;;
71955;SDS011;59829;50.562;6.258;2023-06-05T02:17:05;2.58;;;1.38;;
71955;SDS011;59829;50.562;6.258;2023-06-05T02:27:06;2.28;;;1.30;;
71955;SDS011;59829;50.562;6.258;2023-06-05T02:37:08;1.80;;;1.13;;
71955;SDS011;59829;50.562;6.258;2023-06-05T02:47:08;2.67;;;1.55;;
71955;SDS011;59829;50.562;6.258;2023-06-05T02:57:08;2.40;;;1.50;;
71955;SDS011;59829;50.562;6.258;2023-06-05T03:07:09;3.58;;;1.27;;
71955;SDS011;59829;50.562;6.258;2023-06-05T03:17:13;2.78;;;1.30;;
71955;SDS011;59829;50.562;6.258;2023-06-05T03:27:13;2.50;;;1.50;;
71955;SDS011;59829;50.562;6.258;2023-06-05T03:37:14;5.57;;;1.58;;
71955;SDS011;59829;50.562;6.258;2023-06-05T03:47:15;3.90;;;1.55;;
71955;SDS011;59829;50.562;6.258;2023-06-05T03:57:15;2.55;;;1.30;;
71955;SDS011;59829;50.562;6.258;2023-06-05T04:07:16;2.70;;;1.45;;
71955;SDS011;59829;50.562;6.258;2023-06-05T04:17:16;3.28;;;1.38;;
71955;SDS011;59829;50.562;6.258;2023-06-05T04:27:17;2.75;;;1.40;;
71955;SDS011;59829;50.562;6.258;2023-06-05T04:37:17;2.85;;;1.10;;
71955;SDS011;59829;50.562;6.258;2023-06-05T04:47:17;1.80;;;1.27;;
71955;SDS011;59829;50.562;6.258;2023-06-05T04:57:18;3.22;;;1.35;;
71955;SDS011;59829;50.562;6.258;2023-06-05T05:07:18;2.97;;;1.30;;
71955;SDS011;59829;50.562;6.258;2023-06-05T05:17:18;3.88;;;1.65;;
71955;SDS011;59829;50.562;6.258;2023-06-05T05:27:19;3.33;;;1.30;;
71955;SDS011;59829;50.562;6.258;2023-06-05T05:37:19;2.72;;;1.17;;
71955;SDS011;59829;50.562;6.258;2023-06-05T05:47:20;2.97;;;1.48;;
71955;SDS011;59829;50.562;6.258;2023-06-05T05:57:21;1.77;;;1.08;;
71955;SDS011;59829;50.562;6.258;2023-06-05T06:07:21;1.42;;;1.08;;
71955;SDS011;59829;50.562;6.258;2023-06-05T06:17:22;3.17;;;1.20;;
71955;SDS011;59829;50.562;6.258;2023-06-05T06:27:22;2.13;;;1.10;;
71955;SDS011;59829;50.562;6.258;2023-06-05T06:37:23;2.25;;;0.90;;
71955;SDS011;59829;50.562;6.258;2023-06-05T06:47:23;1.80;;;0.85;;
71955;SDS011;59829;50.562;6.258;2023-06-05T06:57:25;2.80;;;1.08;;
71955;SDS011;59829;50.562;6.258;2023-06-05T07:07:25;1.40;;;0.60;;
71955;SDS011;59829;50.562;6.258;2023-06-05T07:17:28;1.33;;;0.70;;
71955;SDS011;59829;50.562;6.258;2023-06-05T07:27:30;1.23;;;0.60;;
71955;SDS011;59829;50.562;6.258;2023-06-05T07:37:30;1.83;;;0.63;;
71955;SDS011;59829;50.562;6.258;2023-06-05T07:47:31;0.82;;;0.50;;
71955;SDS011;59829;50.562;6.258;2023-06-05T07:57:31;2.65;;;0.70;;
71955;SDS011;59829;50.562;6.258;2023-06-05T08:07:31;1.20;;;0.73;;
71955;SDS011;59829;50.562;6.258;2023-06-05T08:17:32;0.70;;;0.50;;
71955;SDS011;59829;50.562;6.258;2023-06-05T08:27:32;0.75;;;0.43;;
71955;SDS011;59829;50.562;6.258;2023-06-05T08:37:32;1.63;;;0.50;;
71955;SDS011;59829;50.562;6.258;2023-06-05T08:47:33;1.40;;;0.60;;
71955;SDS011;59829;50.562;6.258;2023-06-05T08:57:40;0.85;;;0.50;;
71955;SDS011;59829;50.562;6.258;2023-06-05T09:07:41;1.55;;;0.40;;
71955;SDS011;59829;50.562;6.258;2023-06-05T09:17:41;0.70;;;0.47;;
71955;SDS011;59829;50.562;6.258;2023-06-05T09:27:42;1.02;;;0.50;;
71955;SDS011;59829;50.562;6.258;2023-06-05T09:37:42;1.50;;;0.60;;
71955;SDS011;59829;50.562;6.258;2023-06-05T09:47:46;1.05;;;0.82;;
71955;SDS011;59829;50.562;6.258;2023-06-05T09:57:47;0.80;;;0.50;;
71955;SDS011;59829;50.562;6.258;2023-06-05T10:07:48;1.70;;;0.63;;
71955;SDS011;59829;50.562;6.258;2023-06-05T10:17:54;2.40;;;0.60;;
71955;SDS011;59829;50.562;6.258;2023-06-05T10:28:08;1.53;;;0.60;;
71955;SDS011;59829;50.562;6.258;2023-06-05T10:38:31;1.48;;;0.60;;
71955;SDS011;59829;50.562;6.258;2023-06-05T10:59:11;2.60;;;0.80;;
71955;SDS011;59829;50.562;6.258;2023-06-05T11:09:13;1.17;;;0.85;;
71955;SDS011;59829;50.562;6.258;2023-06-05T11:29:15;0.68;;;0.50;;
71955;SDS011;59829;50.562;6.258;2023-06-05T11:39:15;2.08;;;0.70;;
71955;SDS011;59829;50.562;6.258;2023-06-05T11:49:26;1.08;;;0.60;;
71955;SDS011;59829;50.562;6.258;2023-06-05T11:59:28;1.30;;;0.77;;
71955;SDS011;59829;50.562;6.258;2023-06-05T12:09:29;2.65;;;0.90;;
71955;SDS011;59829;50.562;6.258;2023-06-05T12:19:29;2.00;;;0.95;;
71955;SDS011;59829;50.562;6.258;2023-06-05T12:29:31;1.60;;;0.80;;
71955;SDS011;59829;50.562;6.258;2023-06-05T12:39:32;1.13;;;0.80;;
71955;SDS011;59829;50.562;6.258;2023-06-05T12:49:33;2.47;;;1.00;;
71955;SDS011;59829;50.562;6.258;2023-06-05T12:59:34;2.03;;;0.85;;
71955;SDS011;59829;50.562;6.258;2023-06-05T13:09:34;2.65;;;1.10;;
71955;SDS011;59829;50.562;6.258;2023-06-05T13:19:35;2.23;;;1.17;;
71955;SDS011;59829;50.562;6.258;2023-06-05T13:29:36;1.63;;;1.10;;
71955;SDS011;59829;50.562;6.258;2023-06-05T13:39:36;2.03;;;1.20;;
71955;SDS011;59829;50.562;6.258;2023-06-05T13:49:37;1.85;;;1.25;;
71955;SDS011;59829;50.562;6.258;2023-06-05T13:59:37;3.45;;;1.30;;
71955;SDS011;59829;50.562;6.258;2023-06-05T14:09:38;2.75;;;1.48;;
71955;SDS011;59829;50.562;6.258;2023-06-05T14:19:38;3.08;;;1.30;;
71955;SDS011;59829;50.562;6.258;2023-06-05T14:29:38;1.55;;;0.93;;
71955;SDS011;59829;50.562;6.258;2023-06-05T14:39:39;2.38;;;1.00;;
71955;SDS011;59829;50.562;6.258;2023-06-05T14:49:39;1.30;;;1.00;;
71955;SDS011;59829;50.562;6.258;2023-06-05T14:59:40;3.38;;;1.08;;
71955;SDS011;59829;50.562;6.258;2023-06-05T15:09:40;1.60;;;0.90;;
71955;SDS011;59829;50.562;6.258;2023-06-05T15:19:40;1.63;;;0.90;;
71955;SDS011;59829;50.562;6.258;2023-06-05T15:29:41;2.55;;;1.20;;
71955;SDS011;59829;50.562;6.258;2023-06-05T15:55:31;2.00;;;1.10;;
71955;SDS011;59829;50.562;6.258;2023-06-05T16:05:32;3.50;;;1.43;;
71955;SDS011;59829;50.562;6.258;2023-06-05T16:15:32;2.63;;;1.00;;
71955;SDS011;59829;50.562;6.258;2023-06-05T16:25:33;1.88;;;1.30;;
71955;SDS011;59829;50.562;6.258;2023-06-05T16:35:33;3.50;;;1.23;;
71955;SDS011;59829;50.562;6.258;2023-06-05T16:45:33;2.75;;;1.10;;
71955;SDS011;59829;50.562;6.258;2023-06-05T16:55:37;3.15;;;1.27;;
71955;SDS011;59829;50.562;6.258;2023-06-05T17:05:37;2.53;;;1.23;;
71955;SDS011;59829;50.562;6.258;2023-06-05T17:15:37;1.90;;;1.10;;
71955;SDS011;59829;50.562;6.258;2023-06-05T17:25:38;3.70;;;1.40;;
71955;SDS011;59829;50.562;6.258;2023-06-05T17:35:38;1.60;;;1.00;;
71955;SDS011;59829;50.562;6.258;2023-06-05T17:45:39;1.47;;;1.10;;
71955;SDS011;59829;50.562;6.258;2023-06-05T17:55:40;3.37;;;1.23;;
71955;SDS011;59829;50.562;6.258;2023-06-05T18:05:40;2.20;;;1.38;;
71955;SDS011;59829;50.562;6.258;2023-06-05T18:15:40;1.95;;;1.20;;
71955;SDS011;59829;50.562;6.258;2023-06-05T18:25:41;1.50;;;1.00;;
71955;SDS011;59829;50.562;6.258;2023-06-05T18:35:43;1.45;;;1.10;;
71955;SDS011;59829;50.562;6.258;2023-06-05T18:45:44;2.60;;;1.30;;
71955;SDS011;59829;50.562;6.258;2023-06-05T18:55:44;2.28;;;0.98;;
71955;SDS011;59829;50.562;6.258;2023-06-05T19:05:45;2.40;;;1.00;;
71955;SDS011;59829;50.562;6.258;2023-06-05T19:15:45;1.92;;;1.15;;
71955;SDS011;59829;50.562;6.258;2023-06-05T19:25:48;4.25;;;1.42;;
71955;SDS011;59829;50.562;6.258;2023-06-05T19:35:49;2.50;;;1.20;;
71955;SDS011;59829;50.562;6.258;2023-06-05T19:45:49;2.33;;;1.20;;
71955;SDS011;59829;50.562;6.258;2023-06-05T19:55:50;1.58;;;1.10;;
71955;SDS011;59829;50.562;6.258;2023-06-05T20:05:50;2.03;;;1.20;;
71955;SDS011;59829;50.562;6.258;2023-06-05T20:15:51;1.92;;;1.25;;
71955;SDS011;59829;50.562;6.258;2023-06-05T20:25:51;2.22;;;1.50;;
71955;SDS011;59829;50.562;6.258;2023-06-05T20:35:52;2.08;;;1.30;;
71955;SDS011;59829;50.562;6.258;2023-06-05T20:45:52;2.88;;;1.40;;
71955;SDS011;59829;50.562;6.258;2023-06-05T20:55:54;3.25;;;1.63;;
71955;SDS011;59829;50.562;6.258;2023-06-05T21:05:54;2.30;;;1.50;;
71955;SDS011;59829;50.562;6.258;2023-06-05T21:15:55;2.17;;;1.40;;
71955;SDS011;59829;50.562;6.258;2023-06-05T21:25:55;2.45;;;1.30;;
71955;SDS011;59829;50.562;6.258;2023-06-05T21:35:55;2.22;;;1.20;;
71955;SDS011;59829;50.562;6.258;2023-06-05T21:45:56;3.40;;;1.35;;
71955;SDS011;59829;50.562;6.258;2023-06-05T21:55:56;2.92;;;1.50;;
71955;SDS011;59829;50.562;6.258;2023-06-05T22:05:56;2.83;;;1.27;;
71955;SDS011;59829;50.562;6.258;2023-06-05T22:15:57;2.10;;;1.50;;
71955;SDS011;59829;50.562;6.258;2023-06-05T22:26:01;3.00;;;1.40;;
71955;SDS011;59829;50.562;6.258;2023-06-05T22:36:02;3.25;;;1.40;;
71955;SDS011;59829;50.562;6.258;2023-06-05T22:46:03;2.15;;;1.27;;
71955;SDS011;59829;50.562;6.258;2023-06-05T22:56:03;2.57;;;1.40;;
71955;SDS011;59829;50.562;6.258;2023-06-05T23:06:04;3.05;;;1.23;;
71955;SDS011;59829;50.562;6.258;2023-06-05T23:16:05;1.65;;;1.25;;
71955;SDS011;59829;50.562;6.258;2023-06-05T23:26:05;1.92;;;1.05;;
71955;SDS011;59829;50.562;6.258;2023-06-05T23:36:07;2.08;;;1.25;;
71955;SDS011;59829;50.562;6.258;2023-06-05T23:46:07;1.80;;;1.20;;
71955;SDS011;59829;50.562;6.258;2023-06-05T23:56:08;2.10;;;1.33;;
